createdAt,value
2023-03-18T00:00:07.596Z,0.00
2023-03-18T00:01:07.649Z,0.00
2023-03-18T00:02:07.607Z,0.00
2023-03-18T00:03:07.577Z,0.00
2023-03-18T00:04:07.700Z,0.00
2023-03-18T00:05:07.600Z,0.00
2023-03-18T00:06:07.529Z,0.00
2023-03-18T00:07:07.523Z,0.00
2023-03-18T00:08:07.519Z,0.00
2023-03-18T00:09:07.534Z,0.00
2023-03-18T00:10:07.509Z,0.00
2023-03-18T00:11:07.484Z,0.00
2023-03-18T00:12:07.449Z,0.00
2023-03-18T00:13:07.470Z,0.00
2023-03-18T00:14:07.420Z,0.00
2023-03-18T00:15:07.441Z,0.00
2023-03-18T00:16:07.564Z,0.00
2023-03-18T00:17:07.425Z,0.00
2023-03-18T00:18:07.371Z,0.00
2023-03-18T00:19:07.386Z,0.00
2023-03-18T00:20:07.349Z,0.00
2023-03-18T00:21:07.358Z,0.00
2023-03-18T00:22:07.358Z,0.00
2023-03-18T00:23:07.384Z,0.00
2023-03-18T00:24:07.318Z,0.00
2023-03-18T00:25:07.297Z,0.00
2023-03-18T00:26:07.272Z,0.00
2023-03-18T00:27:07.281Z,0.00
2023-03-18T00:28:07.242Z,0.00
2023-03-18T00:29:07.274Z,0.00
2023-03-18T00:30:07.224Z,0.00
2023-03-18T00:31:07.246Z,0.00
2023-03-18T00:32:07.223Z,0.00
2023-03-18T00:33:07.488Z,0.00
2023-03-18T00:34:07.164Z,0.00
2023-03-18T00:35:07.199Z,0.00
2023-03-18T00:36:07.236Z,0.00
2023-03-18T00:37:07.158Z,0.00
2023-03-18T00:38:07.145Z,0.00
2023-03-18T00:39:07.153Z,0.00
2023-03-18T00:40:07.109Z,0.00
2023-03-18T00:41:07.087Z,0.00
2023-03-18T00:42:07.067Z,0.00
2023-03-18T00:43:07.089Z,0.00
2023-03-18T00:44:07.073Z,0.00
2023-03-18T00:45:07.045Z,0.00
2023-03-18T00:46:07.006Z,0.00
2023-03-18T00:47:07.015Z,0.00
2023-03-18T00:48:06.992Z,0.00
2023-03-18T00:49:07.032Z,0.00
2023-03-18T00:50:06.972Z,0.00
2023-03-18T00:51:06.964Z,0.00
2023-03-18T00:52:06.937Z,0.00
2023-03-18T00:53:06.979Z,0.00
2023-03-18T00:54:06.943Z,0.00
2023-03-18T00:55:06.975Z,0.00
2023-03-18T00:56:06.903Z,0.00
2023-03-18T00:57:06.898Z,0.00
2023-03-18T00:58:06.867Z,0.00
2023-03-18T00:59:06.888Z,0.00
2023-03-18T01:00:06.913Z,0.00
2023-03-18T01:01:06.896Z,0.00
2023-03-18T01:02:06.866Z,0.00
2023-03-18T01:03:06.838Z,0.00
2023-03-18T01:04:06.775Z,0.00
2023-03-18T01:05:06.787Z,0.00
2023-03-18T01:06:06.814Z,0.00
2023-03-18T01:07:06.755Z,0.00
2023-03-18T01:08:06.745Z,0.00
2023-03-18T01:09:06.781Z,0.00
2023-03-18T01:10:06.735Z,0.00
2023-03-18T01:11:06.724Z,0.00
2023-03-18T01:12:06.684Z,0.00
2023-03-18T01:13:06.704Z,0.00
2023-03-18T01:14:06.691Z,0.00
2023-03-18T01:15:06.702Z,0.00
2023-03-18T01:16:06.691Z,0.00
2023-03-18T01:17:06.668Z,0.00
2023-03-18T01:18:06.614Z,0.00
2023-03-18T01:19:06.630Z,0.00
2023-03-18T01:20:06.629Z,0.00
2023-03-18T01:21:06.590Z,0.00
2023-03-18T01:22:06.583Z,0.00
2023-03-18T01:23:06.597Z,0.00
2023-03-18T01:24:06.519Z,0.00
2023-03-18T01:25:06.550Z,0.00
2023-03-18T01:26:06.553Z,0.00
2023-03-18T01:27:06.525Z,0.00
2023-03-18T01:28:06.477Z,0.00
2023-03-18T01:29:06.482Z,0.00
2023-03-18T01:30:06.479Z,0.00
2023-03-18T01:31:06.495Z,0.00
2023-03-18T01:32:06.543Z,0.00
2023-03-18T01:33:06.587Z,0.00
2023-03-18T01:34:06.431Z,0.00
2023-03-18T01:35:06.423Z,0.00
2023-03-18T01:36:06.455Z,0.00
2023-03-18T01:37:06.408Z,0.00
2023-03-18T01:38:06.428Z,0.00
2023-03-18T01:39:06.379Z,0.00
2023-03-18T01:40:06.320Z,0.00
2023-03-18T01:41:06.357Z,0.00
2023-03-18T01:42:06.310Z,0.00
2023-03-18T01:43:06.325Z,0.00
2023-03-18T01:44:06.305Z,0.00
2023-03-18T01:45:06.306Z,0.00
2023-03-18T01:46:06.322Z,0.00
2023-03-18T01:47:06.243Z,0.00
2023-03-18T01:48:06.234Z,0.00
2023-03-18T01:49:06.233Z,0.00
2023-03-18T01:50:06.217Z,0.00
2023-03-18T01:51:06.250Z,0.00
2023-03-18T01:52:06.197Z,0.00
2023-03-18T01:53:06.201Z,0.00
2023-03-18T01:54:06.234Z,0.00
2023-03-18T01:55:06.205Z,0.00
2023-03-18T01:56:06.117Z,0.00
2023-03-18T01:57:06.128Z,0.00
2023-03-18T01:58:06.094Z,0.00
2023-03-18T01:59:06.094Z,0.00
2023-03-18T02:00:06.094Z,0.00
2023-03-18T02:01:06.158Z,0.00
2023-03-18T02:02:06.037Z,0.00
2023-03-18T02:03:06.053Z,0.00
2023-03-18T02:04:06.013Z,0.00
2023-03-18T02:05:06.052Z,0.00
2023-03-18T02:06:05.992Z,0.00
2023-03-18T02:07:06.039Z,0.00
2023-03-18T02:08:05.984Z,0.00
2023-03-18T02:09:05.990Z,0.00
2023-03-18T02:10:05.932Z,0.00
2023-03-18T02:11:05.953Z,0.00
2023-03-18T02:12:05.913Z,0.00
2023-03-18T02:13:05.921Z,0.00
2023-03-18T02:14:05.911Z,0.00
2023-03-18T02:15:05.930Z,0.00
2023-03-18T02:16:05.860Z,0.00
2023-03-18T02:17:05.870Z,0.00
2023-03-18T02:18:05.898Z,0.00
2023-03-18T02:19:05.842Z,0.00
2023-03-18T02:20:05.838Z,0.00
2023-03-18T02:21:05.920Z,0.00
2023-03-18T02:22:05.793Z,0.00
2023-03-18T02:23:05.769Z,0.00
2023-03-18T02:24:05.831Z,0.00
2023-03-18T02:25:05.784Z,0.00
2023-03-18T02:26:05.768Z,0.00
2023-03-18T02:27:05.738Z,0.00
2023-03-18T02:28:05.755Z,0.00
2023-03-18T02:29:05.698Z,0.00
2023-03-18T02:30:05.702Z,0.00
2023-03-18T02:31:05.821Z,0.00
2023-03-18T02:32:05.682Z,0.00
2023-03-18T02:33:05.663Z,0.00
2023-03-18T02:34:05.679Z,0.00
2023-03-18T02:35:05.636Z,0.00
2023-03-18T02:36:05.650Z,0.00
2023-03-18T02:37:05.592Z,0.00
2023-03-18T02:38:05.638Z,0.00
2023-03-18T02:39:05.572Z,0.00
2023-03-18T02:40:05.579Z,0.00
2023-03-18T02:41:05.556Z,0.00
2023-03-18T02:42:05.604Z,0.00
2023-03-18T02:43:05.542Z,0.00
2023-03-18T02:44:05.539Z,0.00
2023-03-18T02:45:05.527Z,0.00
2023-03-18T02:46:05.561Z,0.00
2023-03-18T02:47:05.484Z,0.00
2023-03-18T02:48:05.475Z,0.00
2023-03-18T02:49:05.448Z,0.00
2023-03-18T02:50:05.449Z,0.00
2023-03-18T02:51:05.421Z,0.00
2023-03-18T02:52:05.438Z,0.00
2023-03-18T02:53:05.415Z,0.00
2023-03-18T02:54:05.399Z,0.00
2023-03-18T02:55:05.370Z,0.00
2023-03-18T02:56:05.451Z,0.00
2023-03-18T02:57:05.367Z,0.00
2023-03-18T02:58:05.391Z,0.00
2023-03-18T02:59:05.314Z,0.00
2023-03-18T03:00:05.337Z,0.00
2023-03-18T03:01:05.315Z,0.00
2023-03-18T03:02:05.319Z,0.00
2023-03-18T03:03:05.398Z,0.00
2023-03-18T03:04:05.302Z,0.00
2023-03-18T03:05:05.238Z,0.00
2023-03-18T03:06:05.257Z,0.00
2023-03-18T03:07:05.208Z,0.00
2023-03-18T03:08:05.222Z,0.00
2023-03-18T03:09:05.185Z,0.00
2023-03-18T03:10:05.227Z,0.00
2023-03-18T03:11:05.166Z,0.00
2023-03-18T03:12:05.177Z,0.00
2023-03-18T03:13:05.151Z,0.00
2023-03-18T03:14:05.145Z,0.00
2023-03-18T03:15:05.115Z,0.00
2023-03-18T03:16:05.160Z,0.00
2023-03-18T03:17:05.083Z,0.00
2023-03-18T03:18:05.087Z,0.00
2023-03-18T03:19:05.081Z,0.00
2023-03-18T03:20:05.062Z,0.00
2023-03-18T03:21:05.033Z,0.00
2023-03-18T03:22:05.101Z,0.00
2023-03-18T03:23:05.001Z,0.00
2023-03-18T03:24:05.015Z,0.00
2023-03-18T03:25:04.980Z,0.00
2023-03-18T03:26:05.003Z,0.00
2023-03-18T03:27:04.991Z,0.00
2023-03-18T03:28:04.976Z,0.00
2023-03-18T03:29:04.962Z,0.00
2023-03-18T03:30:04.959Z,0.00
2023-03-18T03:31:05.007Z,0.00
2023-03-18T03:32:04.905Z,0.00
2023-03-18T03:33:04.924Z,0.00
2023-03-18T03:34:04.918Z,0.00
2023-03-18T03:35:04.885Z,0.00
2023-03-18T03:36:04.917Z,0.00
2023-03-18T03:37:04.856Z,0.00
2023-03-18T03:38:04.871Z,0.00
2023-03-18T03:39:04.800Z,0.00
2023-03-18T03:40:04.821Z,0.00
2023-03-18T03:41:04.800Z,0.00
2023-03-18T03:42:04.761Z,0.00
2023-03-18T03:43:04.786Z,0.00
2023-03-18T03:44:04.784Z,0.00
2023-03-18T03:45:04.779Z,0.00
2023-03-18T03:46:04.718Z,0.00
2023-03-18T03:47:04.742Z,0.00
2023-03-18T03:48:04.693Z,0.00
2023-03-18T03:49:04.737Z,0.00
2023-03-18T03:50:04.668Z,0.00
2023-03-18T03:51:04.718Z,0.00
2023-03-18T03:52:04.654Z,0.00
2023-03-18T03:53:04.655Z,0.00
2023-03-18T03:54:04.614Z,0.00
2023-03-18T03:55:04.635Z,0.00
2023-03-18T03:56:04.586Z,0.00
2023-03-18T03:57:04.594Z,0.00
2023-03-18T03:58:04.564Z,0.00
2023-03-18T03:59:04.587Z,0.00
2023-03-18T04:00:04.550Z,0.00
2023-03-18T04:01:04.561Z,0.00
2023-03-18T04:02:04.520Z,0.00
2023-03-18T04:03:04.518Z,0.00
2023-03-18T04:04:04.486Z,0.00
2023-03-18T04:05:04.517Z,0.00
2023-03-18T04:06:04.503Z,0.00
2023-03-18T04:07:04.496Z,0.00
2023-03-18T04:08:04.426Z,0.00
2023-03-18T04:09:04.446Z,0.00
2023-03-18T04:10:04.415Z,0.00
2023-03-18T04:11:04.470Z,0.00
2023-03-18T04:12:04.389Z,0.00
2023-03-18T04:13:04.408Z,0.00
2023-03-18T04:14:04.371Z,0.00
2023-03-18T04:15:04.388Z,0.00
2023-03-18T04:16:04.350Z,0.00
2023-03-18T04:17:04.353Z,0.00
2023-03-18T04:18:04.341Z,0.00
2023-03-18T04:19:04.321Z,0.00
2023-03-18T04:20:11.331Z,0.00
2023-03-18T04:21:04.271Z,0.00
2023-03-18T04:22:04.249Z,0.00
2023-03-18T04:23:04.290Z,0.00
2023-03-18T04:24:04.229Z,0.00
2023-03-18T04:25:04.248Z,0.00
2023-03-18T04:26:04.203Z,0.00
2023-03-18T04:27:04.223Z,0.00
2023-03-18T04:28:04.176Z,0.00
2023-03-18T04:29:04.471Z,0.00
2023-03-18T04:30:04.185Z,0.00
2023-03-18T04:31:04.185Z,0.00
2023-03-18T04:32:04.128Z,0.00
2023-03-18T04:33:04.240Z,0.00
2023-03-18T04:34:04.134Z,0.00
2023-03-18T04:35:04.114Z,0.00
2023-03-18T04:36:04.124Z,0.00
2023-03-18T04:37:05.020Z,0.00
2023-03-18T04:38:04.070Z,0.00
2023-03-18T04:39:04.083Z,0.00
2023-03-18T04:40:04.010Z,0.00
2023-03-18T04:41:04.033Z,0.00
2023-03-18T04:42:04.032Z,0.00
2023-03-18T04:43:04.000Z,0.00
2023-03-18T04:44:04.021Z,0.00
2023-03-18T04:45:03.978Z,0.00
2023-03-18T04:46:03.969Z,0.00
2023-03-18T04:47:03.956Z,0.00
2023-03-18T04:48:03.936Z,0.00
2023-03-18T04:49:03.994Z,0.00
2023-03-18T04:50:03.889Z,0.00
2023-03-18T04:51:04.082Z,0.00
2023-03-18T04:52:03.864Z,0.00
2023-03-18T04:53:03.914Z,0.00
2023-03-18T04:54:03.847Z,0.00
2023-03-18T04:55:03.859Z,0.00
2023-03-18T04:56:03.811Z,0.00
2023-03-18T04:57:03.835Z,0.00
2023-03-18T04:58:05.540Z,0.00
2023-03-18T04:59:03.799Z,0.00
2023-03-18T05:00:03.769Z,0.00
2023-03-18T05:01:03.983Z,0.00
2023-03-18T05:02:03.739Z,0.00
2023-03-18T05:03:03.759Z,0.00
2023-03-18T05:04:03.809Z,0.00
2023-03-18T05:05:03.737Z,0.00
2023-03-18T05:06:03.707Z,0.00
2023-03-18T05:07:03.688Z,0.00
2023-03-18T05:08:03.605Z,1.00
2023-03-18T05:09:03.665Z,0.00
2023-03-18T05:10:03.689Z,1.00
2023-03-18T05:11:03.586Z,1.00
2023-03-18T05:12:03.582Z,1.00
2023-03-18T05:13:03.578Z,2.00
2023-03-18T05:14:03.540Z,2.00
2023-03-18T05:15:03.552Z,1.00
2023-03-18T05:16:03.553Z,1.00
2023-03-18T05:17:03.543Z,2.00
2023-03-18T05:18:03.501Z,7.00
2023-03-18T05:19:03.505Z,4.00
2023-03-18T05:20:03.450Z,5.00
2023-03-18T05:21:03.460Z,5.00
2023-03-18T05:22:03.429Z,3.00
2023-03-18T05:23:03.440Z,4.00
2023-03-18T05:24:03.427Z,9.00
2023-03-18T05:25:03.417Z,16.00
2023-03-18T05:26:03.393Z,13.00
2023-03-18T05:27:03.429Z,14.00
2023-03-18T05:28:03.461Z,15.00
2023-03-18T05:29:03.386Z,21.00
2023-03-18T05:30:03.325Z,24.00
2023-03-18T05:31:03.336Z,25.00
2023-03-18T05:32:03.347Z,32.00
2023-03-18T05:33:03.318Z,39.00
2023-03-18T05:34:04.061Z,43.00
2023-03-18T05:35:03.271Z,47.00
2023-03-18T05:36:03.291Z,53.00
2023-03-18T05:37:03.252Z,49.00
2023-03-18T05:38:03.251Z,55.00
2023-03-18T05:39:03.265Z,61.00
2023-03-18T05:40:03.260Z,64.00
2023-03-18T05:41:03.196Z,67.00
2023-03-18T05:42:03.194Z,76.00
2023-03-18T05:43:03.208Z,80.00
2023-03-18T05:44:03.147Z,83.00
2023-03-18T05:45:03.145Z,83.00
2023-03-18T05:46:03.182Z,89.00
2023-03-18T05:47:03.129Z,100.00
2023-03-18T05:48:03.105Z,96.00
2023-03-18T05:49:03.136Z,105.00
2023-03-18T05:50:03.082Z,109.00
2023-03-18T05:51:03.102Z,116.00
2023-03-18T05:52:03.075Z,118.00
2023-03-18T05:53:03.067Z,125.00
2023-03-18T05:54:03.101Z,139.00
2023-03-18T05:55:03.021Z,150.00
2023-03-18T05:56:03.943Z,151.00
2023-03-18T05:57:03.031Z,155.00
2023-03-18T05:58:03.029Z,166.00
2023-03-18T05:59:02.992Z,176.00
2023-03-18T06:00:02.940Z,183.00
2023-03-18T06:01:02.965Z,190.00
2023-03-18T06:02:02.960Z,198.00
2023-03-18T06:03:03.015Z,205.00
2023-03-18T06:04:02.953Z,210.00
2023-03-18T06:05:02.955Z,219.00
2023-03-18T06:06:02.990Z,231.00
2023-03-18T06:07:02.878Z,237.00
2023-03-18T06:08:03.179Z,248.00
2023-03-18T06:09:02.846Z,248.00
2023-03-18T06:10:02.867Z,238.00
2023-03-18T06:11:02.928Z,246.00
2023-03-18T06:12:02.796Z,266.00
2023-03-18T06:13:02.827Z,238.00
2023-03-18T06:14:02.781Z,259.00
2023-03-18T06:15:02.891Z,325.00
2023-03-18T06:16:03.592Z,285.00
2023-03-18T06:17:02.811Z,290.00
2023-03-18T06:18:02.737Z,340.00
2023-03-18T06:19:02.722Z,337.00
2023-03-18T06:20:02.692Z,335.00
2023-03-18T06:21:02.714Z,343.00
2023-03-18T06:22:02.689Z,340.00
2023-03-18T06:23:02.691Z,320.00
2023-03-18T06:24:02.664Z,324.00
2023-03-18T06:25:02.718Z,327.00
2023-03-18T06:26:02.638Z,242.00
2023-03-18T06:27:02.712Z,334.00
2023-03-18T06:28:02.595Z,338.00
2023-03-18T06:29:02.628Z,266.00
2023-03-18T06:30:02.557Z,268.00
2023-03-18T06:31:02.628Z,383.00
2023-03-18T06:32:02.563Z,323.00
2023-03-18T06:33:02.624Z,306.00
2023-03-18T06:34:02.578Z,280.00
2023-03-18T06:35:02.550Z,303.00
2023-03-18T06:36:02.541Z,344.00
2023-03-18T06:37:02.568Z,418.00
2023-03-18T06:38:02.465Z,347.00
2023-03-18T06:39:02.508Z,407.00
2023-03-18T06:40:02.467Z,379.00
2023-03-18T06:41:02.462Z,415.00
2023-03-18T06:42:02.411Z,330.00
2023-03-18T06:43:02.451Z,350.00
2023-03-18T06:44:02.414Z,379.00
2023-03-18T06:45:02.435Z,359.00
2023-03-18T06:46:02.477Z,387.00
2023-03-18T06:47:02.379Z,399.00
2023-03-18T06:48:02.329Z,403.00
2023-03-18T06:49:02.380Z,439.00
2023-03-18T06:50:02.316Z,437.00
2023-03-18T06:51:02.349Z,436.00
2023-03-18T06:52:02.287Z,419.00
2023-03-18T06:53:02.316Z,431.00
2023-03-18T06:54:02.261Z,442.00
2023-03-18T06:55:02.323Z,366.00
2023-03-18T06:56:02.654Z,482.00
2023-03-18T06:57:02.275Z,508.00
2023-03-18T06:58:02.226Z,487.00
2023-03-18T06:59:02.273Z,452.00
2023-03-18T07:00:02.253Z,504.00
2023-03-18T07:01:02.261Z,467.00
2023-03-18T07:02:02.980Z,427.00
2023-03-18T07:03:02.171Z,501.00
2023-03-18T07:04:02.187Z,417.00
2023-03-18T07:05:02.180Z,502.00
2023-03-18T07:06:02.099Z,413.00
2023-03-18T07:07:02.265Z,495.00
2023-03-18T07:08:02.089Z,594.00
2023-03-18T07:09:02.220Z,357.00
2023-03-18T07:10:02.095Z,548.00
2023-03-18T07:11:02.080Z,615.00
2023-03-18T07:12:02.025Z,669.00
2023-03-18T07:13:03.005Z,374.00
2023-03-18T07:14:02.023Z,407.00
2023-03-18T07:15:02.021Z,538.00
2023-03-18T07:16:02.030Z,493.00
2023-03-18T07:17:01.995Z,503.00
2023-03-18T07:18:01.971Z,511.00
2023-03-18T07:19:02.070Z,562.00
2023-03-18T07:20:01.968Z,526.00
2023-03-18T07:21:01.939Z,513.00
2023-03-18T07:22:01.926Z,555.00
2023-03-18T07:23:01.961Z,494.00
2023-03-18T07:24:01.868Z,547.00
2023-03-18T07:25:01.897Z,549.00
2023-03-18T07:26:01.849Z,553.00
2023-03-18T07:27:01.858Z,547.00
2023-03-18T07:28:01.994Z,542.00
2023-03-18T07:29:01.910Z,521.00
2023-03-18T07:30:01.804Z,593.00
2023-03-18T07:31:02.089Z,537.00
2023-03-18T07:32:01.782Z,587.00
2023-03-18T07:33:01.838Z,556.00
2023-03-18T07:34:01.776Z,585.00
2023-03-18T07:35:01.772Z,599.00
2023-03-18T07:36:01.897Z,555.00
2023-03-18T07:37:01.761Z,599.00
2023-03-18T07:38:02.630Z,647.00
2023-03-18T07:39:01.710Z,581.00
2023-03-18T07:40:01.744Z,584.00
2023-03-18T07:41:01.729Z,565.00
2023-03-18T07:42:01.679Z,592.00
2023-03-18T07:43:01.648Z,640.00
2023-03-18T07:44:01.781Z,599.00
2023-03-18T07:45:01.646Z,630.00
2023-03-18T07:46:01.615Z,520.00
2023-03-18T07:47:01.631Z,566.00
2023-03-18T07:48:01.606Z,611.00
2023-03-18T07:49:01.617Z,578.00
2023-03-18T07:50:01.603Z,635.00
2023-03-18T07:51:01.654Z,601.00
2023-03-18T07:52:01.528Z,612.00
2023-03-18T07:53:01.646Z,605.00
2023-03-18T07:54:01.518Z,616.00
2023-03-18T07:55:01.498Z,618.00
2023-03-18T07:56:01.492Z,626.00
2023-03-18T07:57:01.578Z,623.00
2023-03-18T07:58:01.468Z,627.00
2023-03-18T07:59:01.447Z,624.00
2023-03-18T08:00:01.437Z,620.00
2023-03-18T08:01:02.353Z,628.00
2023-03-18T08:02:01.485Z,629.00
2023-03-18T08:03:01.398Z,632.00
2023-03-18T08:04:01.507Z,632.00
2023-03-18T08:05:01.372Z,629.00
2023-03-18T08:06:01.480Z,638.00
2023-03-18T08:07:01.520Z,636.00
2023-03-18T08:08:01.365Z,635.00
2023-03-18T08:09:01.302Z,639.00
2023-03-18T08:10:01.323Z,634.00
2023-03-18T08:11:01.277Z,644.00
2023-03-18T08:12:02.024Z,643.00
2023-03-18T08:13:01.287Z,644.00
2023-03-18T08:14:01.252Z,645.00
2023-03-18T08:15:01.222Z,645.00
2023-03-18T08:16:01.261Z,649.00
2023-03-18T08:17:01.191Z,646.00
2023-03-18T08:18:01.269Z,645.00
2023-03-18T08:19:01.172Z,655.00
2023-03-18T08:20:01.187Z,655.00
2023-03-18T08:21:01.161Z,651.00
2023-03-18T08:22:01.187Z,653.00
2023-03-18T08:23:01.138Z,658.00
2023-03-18T08:24:01.198Z,662.00
2023-03-18T08:25:01.253Z,657.00
2023-03-18T08:26:01.114Z,656.00
2023-03-18T08:27:01.096Z,661.00
2023-03-18T08:28:01.165Z,657.00
2023-03-18T08:29:01.054Z,661.00
2023-03-18T08:30:03.479Z,658.00
2023-03-18T08:31:01.060Z,666.00
2023-03-18T08:32:01.047Z,663.00
2023-03-18T08:33:01.052Z,658.00
2023-03-18T08:34:01.053Z,660.00
2023-03-18T08:35:01.002Z,660.00
2023-03-18T08:36:01.056Z,664.00
2023-03-18T08:37:00.952Z,662.00
2023-03-18T08:38:00.997Z,666.00
2023-03-18T08:39:00.921Z,667.00
2023-03-18T08:40:00.921Z,666.00
2023-03-18T08:41:00.910Z,670.00
2023-03-18T08:42:00.905Z,670.00
2023-03-18T08:43:00.884Z,670.00
2023-03-18T08:44:00.881Z,672.00
2023-03-18T08:45:00.867Z,672.00
2023-03-18T08:46:00.905Z,674.00
2023-03-18T08:47:00.871Z,670.00
2023-03-18T08:48:00.833Z,672.00
2023-03-18T08:49:00.795Z,675.00
2023-03-18T08:50:00.824Z,681.00
2023-03-18T08:51:00.758Z,680.00
2023-03-18T08:52:00.808Z,672.00
2023-03-18T08:53:00.830Z,680.00
2023-03-18T08:54:00.765Z,681.00
2023-03-18T08:55:00.765Z,680.00
2023-03-18T08:56:02.855Z,677.00
2023-03-18T08:57:00.737Z,678.00
2023-03-18T08:58:00.715Z,682.00
2023-03-18T08:59:00.724Z,679.00
2023-03-18T09:00:00.690Z,683.00
2023-03-18T09:01:00.657Z,681.00
2023-03-18T09:02:00.664Z,683.00
2023-03-18T09:03:00.621Z,684.00
2023-03-18T09:04:00.646Z,684.00
2023-03-18T09:05:00.629Z,685.00
2023-03-18T09:06:00.600Z,679.00
2023-03-18T09:07:00.549Z,685.00
2023-03-18T09:08:00.595Z,685.00
2023-03-18T09:09:00.569Z,689.00
2023-03-18T09:10:00.561Z,686.00
2023-03-18T09:11:00.518Z,687.00
2023-03-18T09:12:00.510Z,691.00
2023-03-18T09:13:00.520Z,689.00
2023-03-18T09:14:00.521Z,693.00
2023-03-18T09:15:00.461Z,690.00
2023-03-18T09:16:00.532Z,689.00
2023-03-18T09:17:00.465Z,693.00
2023-03-18T09:18:11.441Z,692.00
2023-03-18T09:19:01.430Z,696.00
2023-03-18T09:20:00.446Z,696.00
2023-03-18T09:21:00.390Z,696.00
2023-03-18T09:22:00.442Z,698.00
2023-03-18T09:23:00.372Z,702.00
2023-03-18T09:24:00.354Z,700.00
2023-03-18T09:25:00.329Z,700.00
2023-03-18T09:26:00.370Z,698.00
2023-03-18T09:27:00.343Z,707.00
2023-03-18T09:28:00.327Z,702.00
2023-03-18T09:29:00.275Z,708.00
2023-03-18T09:30:00.340Z,706.00
2023-03-18T09:31:00.335Z,706.00
2023-03-18T09:32:00.286Z,710.00
2023-03-18T09:33:00.291Z,710.00
2023-03-18T09:34:00.266Z,713.00
2023-03-18T09:35:00.213Z,720.00
2023-03-18T09:36:00.346Z,723.00
2023-03-18T09:37:00.170Z,719.00
2023-03-18T09:38:00.235Z,719.00
2023-03-18T09:39:00.219Z,720.00
2023-03-18T09:40:00.186Z,726.00
2023-03-18T09:41:00.150Z,730.00
2023-03-18T09:42:00.138Z,734.00
2023-03-18T09:43:00.137Z,731.00
2023-03-18T09:44:00.123Z,738.00
2023-03-18T09:45:00.059Z,742.00
2023-03-18T09:46:00.270Z,748.00
2023-03-18T09:47:00.356Z,748.00
2023-03-18T09:48:00.088Z,743.00
2023-03-18T09:49:00.080Z,745.00
2023-03-18T09:50:00.094Z,753.00
2023-03-18T09:51:00.088Z,766.00
2023-03-18T09:51:59.994Z,772.00
2023-03-18T09:52:59.975Z,763.00
2023-03-18T09:53:59.970Z,766.00
2023-03-18T09:54:59.956Z,771.00
2023-03-18T09:55:59.965Z,778.00
2023-03-18T09:56:59.915Z,778.00
2023-03-18T09:57:59.932Z,779.00
2023-03-18T09:58:59.893Z,789.00
2023-03-18T10:00:00.010Z,789.00
2023-03-18T10:01:00.854Z,803.00
2023-03-18T10:01:59.891Z,834.00
2023-03-18T10:02:59.861Z,877.00
2023-03-18T10:03:59.875Z,816.00
2023-03-18T10:04:59.836Z,830.00
2023-03-18T10:05:59.810Z,882.00
2023-03-18T10:06:59.780Z,908.00
2023-03-18T10:07:59.806Z,899.00
2023-03-18T10:08:59.778Z,931.00
2023-03-18T10:09:59.805Z,929.00
2023-03-18T10:10:59.737Z,968.00
2023-03-18T10:11:59.745Z,1024.00
2023-03-18T10:12:59.708Z,968.00
2023-03-18T10:13:59.726Z,987.00
2023-03-18T10:14:59.676Z,975.00
2023-03-18T10:15:59.904Z,974.00
2023-03-18T10:16:59.657Z,1042.00
2023-03-18T10:17:59.676Z,940.00
2023-03-18T10:18:59.657Z,964.00
2023-03-18T10:19:59.733Z,994.00
2023-03-18T10:21:06.681Z,1036.00
2023-03-18T10:21:59.614Z,1050.00
2023-03-18T10:22:59.572Z,1086.00
2023-03-18T10:23:59.580Z,1175.00
2023-03-18T10:24:59.553Z,1207.00
2023-03-18T10:25:59.550Z,1010.00
2023-03-18T10:26:59.552Z,688.00
2023-03-18T10:27:59.539Z,1001.00
2023-03-18T10:28:59.502Z,641.00
2023-03-18T10:29:59.531Z,734.00
2023-03-18T10:30:59.477Z,863.00
2023-03-18T10:31:59.563Z,849.00
2023-03-18T10:32:59.498Z,833.00
2023-03-18T10:33:59.483Z,823.00
2023-03-18T10:34:59.442Z,809.00
2023-03-18T10:35:59.561Z,773.00
2023-03-18T10:36:59.448Z,759.00
2023-03-18T10:37:59.462Z,746.00
2023-03-18T10:38:59.411Z,735.00
2023-03-18T10:39:59.396Z,742.00
2023-03-18T10:40:59.390Z,732.00
2023-03-18T10:42:00.447Z,730.00
2023-03-18T10:42:59.379Z,733.00
2023-03-18T10:43:59.318Z,736.00
2023-03-18T10:44:59.304Z,735.00
2023-03-18T10:45:59.327Z,733.00
2023-03-18T10:46:59.388Z,736.00
2023-03-18T10:47:59.295Z,744.00
2023-03-18T10:48:59.290Z,717.00
2023-03-18T10:49:59.278Z,728.00
2023-03-18T10:50:59.234Z,731.00
2023-03-18T10:51:59.308Z,733.00
2023-03-18T10:52:59.217Z,727.00
2023-03-18T10:53:59.214Z,733.00
2023-03-18T10:54:59.193Z,733.00
2023-03-18T10:55:59.182Z,737.00
2023-03-18T10:56:59.159Z,740.00
2023-03-18T10:57:59.193Z,736.00
2023-03-18T10:58:59.120Z,738.00
2023-03-18T10:59:59.210Z,744.00
2023-03-18T11:00:59.092Z,741.00
2023-03-18T11:01:59.191Z,740.00
2023-03-18T11:02:59.149Z,742.00
2023-03-18T11:03:59.097Z,738.00
2023-03-18T11:04:59.071Z,744.00
2023-03-18T11:05:59.085Z,744.00
2023-03-18T11:06:59.020Z,747.00
2023-03-18T11:07:59.036Z,742.00
2023-03-18T11:08:59.001Z,744.00
2023-03-18T11:09:59.006Z,750.00
2023-03-18T11:10:58.997Z,744.00
2023-03-18T11:11:58.995Z,749.00
2023-03-18T11:12:58.943Z,748.00
2023-03-18T11:13:58.955Z,748.00
2023-03-18T11:14:58.920Z,755.00
2023-03-18T11:15:59.015Z,759.00
2023-03-18T11:16:58.894Z,759.00
2023-03-18T11:17:58.933Z,752.00
2023-03-18T11:18:58.907Z,766.00
2023-03-18T11:19:58.881Z,757.00
2023-03-18T11:20:58.867Z,767.00
2023-03-18T11:21:58.862Z,761.00
2023-03-18T11:22:58.822Z,757.00
2023-03-18T11:23:58.866Z,767.00
2023-03-18T11:24:58.791Z,764.00
2023-03-18T11:25:58.791Z,762.00
2023-03-18T11:26:58.774Z,768.00
2023-03-18T11:27:58.787Z,774.00
2023-03-18T11:28:58.756Z,771.00
2023-03-18T11:29:58.790Z,780.00
2023-03-18T11:30:58.808Z,774.00
2023-03-18T11:31:58.736Z,783.00
2023-03-18T11:32:58.760Z,773.00
2023-03-18T11:33:58.700Z,780.00
2023-03-18T11:34:58.690Z,778.00
2023-03-18T11:35:58.733Z,779.00
2023-03-18T11:36:58.643Z,779.00
2023-03-18T11:37:58.648Z,781.00
2023-03-18T11:38:58.638Z,782.00
2023-03-18T11:39:59.215Z,785.00
2023-03-18T11:40:58.600Z,794.00
2023-03-18T11:41:58.588Z,793.00
2023-03-18T11:42:58.605Z,802.00
2023-03-18T11:43:58.607Z,804.00
2023-03-18T11:44:58.536Z,807.00
2023-03-18T11:45:58.556Z,812.00
2023-03-18T11:46:58.552Z,819.00
2023-03-18T11:47:58.535Z,826.00
2023-03-18T11:48:58.481Z,829.00
2023-03-18T11:49:58.529Z,842.00
2023-03-18T11:50:58.493Z,845.00
2023-03-18T11:51:58.500Z,830.00
2023-03-18T11:52:58.443Z,869.00
2023-03-18T11:53:58.474Z,807.00
2023-03-18T11:55:01.023Z,849.00
2023-03-18T11:55:58.434Z,860.00
2023-03-18T11:56:58.412Z,841.00
2023-03-18T11:57:58.381Z,839.00
2023-03-18T11:58:58.360Z,895.00
2023-03-18T11:59:58.381Z,940.00
2023-03-18T12:00:58.372Z,934.00
2023-03-18T12:01:58.346Z,773.00
2023-03-18T12:02:58.297Z,883.00
2023-03-18T12:03:58.321Z,862.00
2023-03-18T12:04:58.351Z,881.00
2023-03-18T12:05:58.319Z,993.00
2023-03-18T12:06:58.303Z,931.00
2023-03-18T12:07:58.254Z,913.00
2023-03-18T12:09:00.116Z,904.00
2023-03-18T12:09:58.211Z,899.00
2023-03-18T12:10:58.207Z,888.00
2023-03-18T12:11:58.204Z,907.00
2023-03-18T12:12:58.202Z,910.00
2023-03-18T12:13:58.173Z,969.00
2023-03-18T12:14:58.176Z,930.00
2023-03-18T12:15:58.192Z,1023.00
2023-03-18T12:16:58.186Z,992.00
2023-03-18T12:17:58.115Z,1120.00
2023-03-18T12:18:58.104Z,952.00
2023-03-18T12:19:58.080Z,1028.00
2023-03-18T12:20:58.091Z,978.00
2023-03-18T12:21:58.078Z,1001.00
2023-03-18T12:22:58.052Z,1003.00
2023-03-18T12:23:58.038Z,1116.00
2023-03-18T12:24:58.046Z,1023.00
2023-03-18T12:25:58.001Z,1058.00
2023-03-18T12:26:58.056Z,1170.00
2023-03-18T12:27:57.993Z,1245.00
2023-03-18T12:28:58.254Z,1314.00
2023-03-18T12:29:57.951Z,1307.00
2023-03-18T12:30:57.988Z,1296.00
2023-03-18T12:31:57.955Z,1255.00
2023-03-18T12:32:58.048Z,1203.00
2023-03-18T12:33:57.903Z,1124.00
2023-03-18T12:34:57.914Z,1134.00
2023-03-18T12:35:57.920Z,1060.00
2023-03-18T12:36:57.889Z,1093.00
2023-03-18T12:37:57.840Z,1130.00
2023-03-18T12:38:57.894Z,1067.00
2023-03-18T12:39:57.829Z,1142.00
2023-03-18T12:40:57.841Z,1102.00
2023-03-18T12:41:57.797Z,1084.00
2023-03-18T12:42:57.808Z,1039.00
2023-03-18T12:43:57.776Z,1050.00
2023-03-18T12:44:57.821Z,1089.00
2023-03-18T12:45:57.786Z,1082.00
2023-03-18T12:46:57.776Z,1080.00
2023-03-18T12:47:57.736Z,1079.00